createdAt,value
2018-05-16T00:01:05.696Z,6.30
2018-05-16T00:03:33.796Z,7.40
2018-05-16T00:06:01.883Z,6.47
2018-05-16T00:08:29.989Z,6.00
2018-05-16T00:10:58.076Z,6.77
2018-05-16T00:13:26.174Z,6.70
2018-05-16T00:15:56.237Z,6.90
2018-05-16T00:18:26.275Z,6.50
2018-05-16T00:21:01.526Z,6.70
2018-05-16T00:23:29.628Z,6.30
2018-05-16T00:25:57.728Z,6.90
2018-05-16T00:28:25.812Z,6.83
2018-05-16T00:30:57.748Z,7.00
2018-05-16T00:33:25.852Z,6.40
2018-05-16T00:35:53.945Z,6.47
2018-05-16T00:38:24.147Z,6.83
2018-05-16T00:40:52.237Z,6.20
2018-05-16T00:43:20.441Z,6.57
2018-05-16T00:45:49.210Z,6.63
2018-05-16T00:48:17.345Z,6.90
2018-05-16T00:51:01.335Z,6.87
2018-05-16T00:53:30.206Z,7.17
2018-05-16T00:55:58.305Z,7.23
2018-05-16T00:58:37.458Z,7.10
2018-05-16T01:01:05.546Z,6.87
2018-05-16T01:03:35.626Z,6.57
2018-05-16T01:06:09.746Z,6.90
2018-05-16T01:08:37.847Z,7.10
2018-05-16T01:11:07.891Z,6.27
2018-05-16T01:13:36.029Z,7.27
2018-05-16T01:16:05.040Z,7.13
2018-05-16T01:18:33.126Z,7.03
2018-05-16T01:21:03.159Z,7.13
2018-05-16T01:23:32.148Z,7.27
2018-05-16T01:26:00.249Z,6.40
2018-05-16T01:28:28.349Z,7.50
2018-05-16T01:30:57.224Z,6.63
2018-05-16T01:33:25.308Z,6.10
2018-05-16T01:35:54.317Z,7.10
2018-05-16T01:38:24.336Z,7.33
2018-05-16T01:40:53.197Z,7.37
2018-05-16T01:43:24.611Z,7.23
2018-05-16T01:45:53.630Z,7.50
2018-05-16T01:48:21.720Z,7.40
2018-05-16T01:50:49.826Z,8.07
2018-05-16T01:53:17.906Z,6.80
2018-05-16T01:55:46.001Z,7.60
2018-05-16T01:58:14.094Z,7.67
2018-05-16T02:00:43.157Z,8.13
2018-05-16T02:03:13.212Z,7.27
2018-05-16T02:05:41.302Z,8.03
2018-05-16T02:08:09.427Z,7.87
2018-05-16T02:10:38.649Z,7.70
2018-05-16T02:13:07.652Z,7.63
2018-05-16T02:15:35.737Z,7.57
2018-05-16T02:18:03.810Z,8.33
2018-05-16T02:20:32.667Z,8.13
2018-05-16T02:23:00.751Z,8.53
2018-05-16T02:25:28.836Z,8.33
2018-05-16T02:27:56.939Z,8.27
2018-05-16T02:30:25.062Z,7.33
2018-05-16T02:32:54.146Z,7.30
2018-05-16T02:35:22.279Z,7.70
2018-05-16T02:37:51.359Z,8.03
2018-05-16T02:40:19.472Z,6.70
2018-05-16T02:42:50.599Z,6.93
2018-05-16T02:45:18.709Z,7.07
2018-05-16T02:47:46.821Z,7.40
2018-05-16T02:50:14.912Z,7.30
2018-05-16T02:52:43.014Z,7.57
2018-05-16T02:55:11.887Z,8.27
2018-05-16T02:57:53.367Z,8.40
2018-05-16T03:00:21.470Z,8.37
2018-05-16T03:02:49.560Z,8.63
2018-05-16T03:05:18.622Z,8.00
2018-05-16T03:07:48.241Z,9.40
2018-05-16T03:10:17.094Z,8.27
2018-05-16T03:12:45.200Z,8.30
2018-05-16T03:15:21.050Z,9.10
2018-05-16T03:17:49.134Z,8.60
2018-05-16T03:20:19.196Z,8.50
2018-05-16T03:22:57.687Z,8.93
2018-05-16T03:25:27.767Z,8.70
2018-05-16T03:28:00.262Z,9.03
2018-05-16T03:30:32.944Z,9.23
2018-05-16T03:33:01.031Z,9.17
2018-05-16T03:35:29.131Z,9.90
2018-05-16T03:38:03.834Z,8.83
2018-05-16T03:40:33.724Z,8.80
2018-05-16T03:43:06.564Z,8.73
2018-05-16T03:45:34.655Z,9.40
2018-05-16T03:48:03.525Z,9.03
2018-05-16T03:50:32.584Z,8.77
2018-05-16T03:53:01.071Z,8.40
2018-05-16T03:55:29.174Z,9.17
2018-05-16T03:58:13.888Z,9.60
2018-05-16T04:00:55.619Z,8.60
2018-05-16T04:03:35.595Z,9.90
2018-05-16T04:06:05.614Z,8.87
2018-05-16T04:08:33.719Z,8.97
2018-05-16T04:11:01.825Z,8.33
2018-05-16T04:13:30.015Z,8.80
2018-05-16T04:15:57.993Z,8.20
2018-05-16T04:18:26.090Z,8.30
2018-05-16T04:20:57.590Z,8.23
2018-05-16T04:23:30.400Z,8.73
2018-05-16T04:25:58.502Z,8.93
2018-05-16T04:28:29.100Z,9.20
2018-05-16T04:31:00.565Z,8.37
2018-05-16T04:33:29.444Z,9.00
2018-05-16T04:35:58.495Z,8.80
2018-05-16T04:38:27.644Z,8.13
2018-05-16T04:40:57.718Z,9.07
2018-05-16T04:43:29.500Z,8.37
2018-05-16T04:46:01.333Z,9.17
2018-05-16T04:48:31.218Z,8.67
2018-05-16T04:51:09.627Z,8.50
2018-05-16T04:53:37.745Z,8.23
2018-05-16T04:56:05.884Z,8.80
2018-05-16T04:58:39.931Z,8.00
2018-05-16T05:01:08.823Z,8.60
2018-05-16T05:03:36.976Z,9.40
2018-05-16T05:06:05.836Z,8.93
2018-05-16T05:08:33.921Z,8.93
2018-05-16T05:11:19.021Z,8.43
2018-05-16T05:14:03.674Z,8.20
2018-05-16T05:16:31.771Z,9.40
2018-05-16T05:19:01.213Z,8.70
2018-05-16T05:21:29.566Z,9.40
2018-05-16T05:23:57.744Z,9.33
2018-05-16T05:26:25.800Z,8.90
2018-05-16T05:28:57.537Z,9.20
2018-05-16T05:31:32.812Z,9.10
2018-05-16T05:34:01.868Z,9.00
2018-05-16T05:36:35.641Z,10.00
2018-05-16T05:39:03.739Z,8.90
2018-05-16T05:41:31.840Z,8.97
2018-05-16T05:44:00.010Z,9.30
2018-05-16T05:46:33.637Z,9.30
2018-05-16T05:49:13.180Z,9.17
2018-05-16T05:51:41.301Z,10.30
2018-05-16T05:54:09.411Z,8.90
2018-05-16T05:56:45.186Z,9.27
2018-05-16T05:59:13.883Z,8.83
2018-05-16T06:01:42.732Z,9.10
2018-05-16T06:04:10.842Z,8.73
2018-05-16T06:06:38.957Z,9.47
2018-05-16T06:09:07.090Z,9.00
2018-05-16T06:11:35.214Z,9.10
2018-05-16T06:14:03.298Z,8.57
2018-05-16T06:16:31.396Z,9.70
2018-05-16T06:19:00.257Z,9.53
2018-05-16T06:21:28.494Z,10.30
2018-05-16T06:23:56.612Z,8.50
2018-05-16T06:26:28.175Z,8.47
2018-05-16T06:28:57.300Z,9.00
2018-05-16T06:31:26.384Z,8.60
2018-05-16T06:34:00.502Z,8.40
2018-05-16T06:36:28.604Z,9.40
2018-05-16T06:38:56.740Z,8.57
2018-05-16T06:41:25.608Z,8.70
2018-05-16T06:43:53.709Z,8.13
2018-05-16T06:46:28.153Z,10.00
2018-05-16T06:49:00.245Z,8.80
2018-05-16T06:51:28.344Z,8.63
2018-05-16T06:53:57.340Z,8.87
2018-05-16T06:56:25.518Z,8.83
2018-05-16T06:58:53.768Z,7.17
2018-05-16T07:01:21.828Z,8.53
2018-05-16T07:04:10.801Z,8.80
2018-05-16T07:06:43.506Z,7.77
2018-05-16T07:09:17.813Z,7.60
2018-05-16T07:11:45.926Z,8.70
2018-05-16T07:14:14.043Z,8.03
2018-05-16T07:16:42.145Z,8.43
2018-05-16T07:19:17.897Z,12.93
2018-05-16T07:21:46.758Z,7.60
2018-05-16T07:24:15.836Z,17.87
2018-05-16T07:26:43.967Z,24.10
2018-05-16T07:29:12.089Z,8.90
2018-05-16T07:31:40.193Z,8.23
2018-05-16T07:34:09.102Z,7.40
2018-05-16T07:36:37.274Z,7.00
2018-05-16T07:39:10.623Z,6.17
2018-05-16T07:41:43.446Z,6.60
2018-05-16T07:44:11.541Z,5.80
2018-05-16T07:46:42.796Z,6.13
2018-05-16T07:49:12.718Z,6.50
2018-05-16T07:51:42.813Z,7.73
2018-05-16T07:54:10.913Z,7.70
2018-05-16T07:56:39.051Z,10.77
2018-05-16T07:59:08.101Z,9.43
2018-05-16T08:01:37.522Z,7.43
2018-05-16T08:04:06.588Z,7.00
2018-05-16T08:06:34.674Z,6.67
2018-05-16T08:09:08.172Z,7.20
2018-05-16T08:11:37.503Z,6.30
2018-05-16T08:14:07.471Z,7.67
2018-05-16T08:16:35.568Z,7.00
2018-05-16T08:19:03.713Z,6.57
2018-05-16T08:21:33.797Z,6.63
2018-05-16T08:24:03.854Z,7.00
2018-05-16T08:26:36.270Z,7.53
2018-05-16T08:29:04.364Z,8.23
2018-05-16T08:31:32.484Z,7.40
2018-05-16T08:34:00.583Z,7.80
2018-05-16T08:36:28.672Z,7.93
2018-05-16T08:38:56.766Z,6.90
2018-05-16T08:41:24.875Z,7.77
2018-05-16T08:43:52.981Z,7.10
2018-05-16T08:46:30.594Z,7.30
2018-05-16T08:48:59.617Z,7.73
2018-05-16T08:51:27.731Z,7.20
2018-05-16T08:53:55.834Z,6.70
2018-05-16T08:56:23.936Z,6.90
2018-05-16T08:58:52.052Z,6.30
2018-05-16T09:01:20.543Z,7.27
2018-05-16T09:03:50.655Z,6.70
2018-05-16T09:06:19.534Z,6.40
2018-05-16T09:08:47.684Z,11.00
2018-05-16T09:11:15.795Z,13.30
2018-05-16T09:13:43.977Z,7.83
2018-05-16T09:16:15.917Z,7.07
2018-05-16T09:18:44.749Z,7.20
2018-05-16T09:21:12.879Z,6.67
2018-05-16T09:23:42.716Z,6.93
2018-05-16T09:26:10.817Z,9.13
2018-05-16T09:28:38.899Z,5.70
2018-05-16T09:31:07.512Z,5.93
2018-05-16T09:33:35.633Z,7.10
2018-05-16T09:36:05.733Z,7.33
2018-05-16T09:38:34.888Z,4.80
2018-05-16T09:41:02.985Z,7.60
2018-05-16T09:43:32.836Z,5.77
2018-05-16T09:46:00.985Z,5.70
2018-05-16T09:48:29.070Z,5.67
2018-05-16T09:50:57.159Z,5.70
2018-05-16T09:53:31.388Z,5.13
2018-05-16T09:56:00.243Z,5.20
2018-05-16T09:58:28.444Z,6.67
2018-05-16T10:00:56.548Z,6.80
2018-05-16T10:03:27.320Z,5.37
2018-05-16T10:05:55.456Z,10.60
2018-05-16T10:08:23.563Z,6.53
2018-05-16T10:10:53.649Z,5.60
2018-05-16T10:13:24.493Z,6.80
2018-05-16T10:15:57.172Z,5.63
2018-05-16T10:18:26.426Z,6.00
2018-05-16T10:20:54.517Z,5.73
2018-05-16T10:23:24.799Z,5.83
2018-05-16T10:25:52.915Z,6.07
2018-05-16T10:28:24.861Z,5.90
2018-05-16T10:30:54.076Z,7.00
2018-05-16T10:33:22.178Z,5.30
2018-05-16T10:35:57.670Z,5.13
2018-05-16T10:38:25.767Z,4.93
2018-05-16T10:41:07.569Z,5.07
2018-05-16T10:43:36.422Z,5.50
2018-05-16T10:46:04.539Z,5.17
2018-05-16T10:48:36.686Z,4.90
2018-05-16T10:51:17.246Z,5.00
2018-05-16T10:53:49.368Z,4.47
2018-05-16T10:56:17.474Z,4.80
2018-05-16T10:58:46.510Z,4.93
2018-05-16T11:01:15.539Z,4.87
2018-05-16T11:06:40.055Z,4.47
2018-05-16T11:09:08.250Z,5.37
2018-05-16T11:11:41.490Z,4.43
2018-05-16T11:14:11.207Z,5.00
2018-05-16T11:16:50.215Z,4.63
2018-05-16T11:19:18.355Z,4.13
2018-05-16T11:21:47.402Z,4.70
2018-05-16T11:24:17.462Z,5.20
2018-05-16T11:26:45.567Z,4.93
2018-05-16T11:29:15.636Z,4.97
2018-05-16T11:31:44.484Z,5.20
2018-05-16T11:34:12.574Z,4.67
2018-05-16T11:36:41.151Z,4.57
2018-05-16T11:39:12.416Z,4.00
2018-05-16T11:41:42.423Z,5.00
2018-05-16T11:44:11.493Z,4.70
2018-05-16T11:46:44.040Z,4.50
2018-05-16T11:49:14.202Z,5.67
2018-05-16T11:51:42.316Z,4.20
2018-05-16T11:54:10.461Z,5.00
2018-05-16T11:56:40.611Z,5.20
2018-05-16T11:59:10.412Z,5.10
2018-05-16T12:01:38.486Z,8.90
2018-05-16T12:04:06.622Z,5.80
2018-05-16T12:06:37.799Z,4.70
2018-05-16T12:09:05.964Z,4.10
2018-05-16T12:11:34.023Z,4.27
2018-05-16T12:14:02.886Z,4.37
2018-05-16T12:16:36.263Z,4.57
2018-05-16T12:19:04.362Z,4.27
2018-05-16T12:21:33.252Z,4.73
2018-05-16T12:24:02.239Z,3.83
2018-05-16T12:26:30.344Z,3.57
2018-05-16T12:28:59.450Z,4.50
2018-05-16T12:31:28.421Z,3.43
2018-05-16T12:33:58.267Z,3.93
2018-05-16T12:36:26.438Z,3.77
2018-05-16T12:38:54.469Z,3.50
2018-05-16T12:41:28.904Z,4.20
2018-05-16T12:43:56.980Z,3.73
2018-05-16T12:46:29.362Z,3.13
2018-05-16T12:48:59.985Z,4.10
2018-05-16T12:51:28.055Z,4.23
2018-05-16T12:53:56.195Z,3.70
2018-05-16T12:56:25.876Z,3.93
2018-05-16T12:59:01.844Z,3.90
2018-05-16T13:01:30.511Z,3.60
2018-05-16T13:03:58.534Z,6.00
2018-05-16T13:06:26.639Z,4.60
2018-05-16T13:08:54.730Z,3.70
2018-05-16T13:11:24.841Z,4.00
2018-05-16T13:13:54.932Z,3.90
2018-05-16T13:16:23.078Z,3.47
2018-05-16T13:19:12.027Z,4.50
2018-05-16T13:21:40.291Z,4.30
2018-05-16T13:24:09.840Z,4.03
2018-05-16T13:26:37.945Z,3.67
2018-05-16T13:32:04.115Z,3.77
2018-05-16T13:34:32.468Z,4.27
2018-05-16T13:37:00.563Z,4.10
2018-05-16T13:39:30.512Z,3.83
2018-05-16T13:41:58.590Z,3.93
2018-05-16T13:44:26.682Z,3.90
2018-05-16T13:46:54.797Z,3.70
2018-05-16T13:49:23.041Z,3.93
2018-05-16T13:51:51.147Z,3.97
2018-05-16T13:54:25.836Z,3.60
2018-05-16T13:56:58.156Z,3.80
2018-05-16T13:59:26.336Z,4.30
2018-05-16T14:01:56.850Z,4.60
2018-05-16T14:04:24.967Z,4.10
2018-05-16T14:06:56.971Z,4.30
2018-05-16T14:09:25.732Z,4.03
2018-05-16T14:14:53.604Z,4.30
2018-05-16T14:17:24.280Z,4.53
2018-05-16T14:19:52.369Z,4.70
2018-05-16T14:22:20.480Z,4.23
2018-05-16T14:24:48.606Z,4.87
2018-05-16T14:27:17.665Z,4.57
2018-05-16T14:29:45.761Z,4.40
2018-05-16T14:32:13.876Z,4.13
2018-05-16T14:34:42.740Z,4.57
2018-05-16T14:37:10.948Z,3.67
2018-05-16T14:39:39.037Z,4.57
2018-05-16T14:42:07.160Z,3.80
2018-05-16T14:44:35.272Z,4.20
2018-05-16T14:47:05.284Z,4.80
2018-05-16T14:49:33.370Z,4.70
2018-05-16T14:52:02.463Z,4.20
2018-05-16T14:54:30.594Z,3.90
2018-05-16T14:57:00.274Z,5.00
2018-05-16T14:59:28.444Z,3.83
2018-05-16T15:01:56.552Z,3.97
2018-05-16T15:04:24.644Z,4.00
2018-05-16T15:07:03.377Z,4.10
2018-05-16T15:09:32.459Z,4.43
2018-05-16T15:12:00.590Z,4.40
2018-05-16T15:14:32.935Z,4.77
2018-05-16T15:17:01.083Z,4.90
2018-05-16T15:19:29.953Z,4.13
2018-05-16T15:21:58.058Z,4.70
2018-05-16T15:24:26.189Z,4.30
2018-05-16T15:26:54.279Z,4.27
2018-05-16T15:29:23.357Z,3.90
2018-05-16T15:31:52.306Z,4.43
2018-05-16T15:34:21.465Z,3.90
2018-05-16T15:36:50.423Z,4.07
2018-05-16T15:39:23.655Z,3.70
2018-05-16T15:41:57.507Z,4.37
2018-05-16T15:44:33.168Z,4.10
2018-05-16T15:47:04.318Z,3.83
2018-05-16T15:49:33.198Z,4.20
2018-05-16T15:52:06.182Z,4.40
2018-05-16T15:54:34.273Z,4.07
2018-05-16T15:57:02.398Z,4.00
2018-05-16T15:59:32.481Z,4.00
2018-05-16T16:02:02.604Z,4.57
2018-05-16T16:04:30.784Z,3.73
2018-05-16T16:06:58.924Z,4.10
2018-05-16T16:09:27.048Z,3.90
2018-05-16T16:11:56.154Z,3.70
2018-05-16T16:14:24.256Z,4.20
2018-05-16T16:16:59.608Z,4.43
2018-05-16T16:19:27.713Z,3.63
2018-05-16T16:22:07.380Z,4.33
2018-05-16T16:24:36.252Z,4.47
2018-05-16T16:27:12.370Z,4.43
2018-05-16T16:29:40.800Z,4.53
2018-05-16T16:32:08.958Z,4.23
2018-05-16T16:34:37.691Z,4.33
2018-05-16T16:37:06.631Z,4.30
2018-05-16T16:42:23.805Z,4.30
2018-05-16T16:44:56.534Z,4.37
2018-05-16T16:47:24.558Z,4.60
2018-05-16T16:50:02.649Z,4.47
2018-05-16T16:52:31.759Z,4.20
2018-05-16T16:54:59.890Z,4.57
2018-05-16T16:57:28.816Z,4.10
2018-05-16T17:00:04.524Z,4.10
2018-05-16T17:02:32.589Z,4.10
2018-05-16T17:05:00.798Z,4.60
2018-05-16T17:07:29.865Z,4.23
2018-05-16T17:09:57.968Z,4.07
2018-05-16T17:12:26.127Z,4.30
2018-05-16T17:14:54.993Z,3.97
2018-05-16T17:17:23.867Z,4.23
2018-05-16T17:19:56.146Z,3.90
2018-05-16T17:22:24.256Z,4.00
2018-05-16T17:24:52.348Z,4.03
2018-05-16T17:27:20.475Z,4.20
2018-05-16T17:29:48.566Z,3.43
2018-05-16T17:32:16.659Z,3.60
2018-05-16T17:34:44.797Z,3.03
2018-05-16T17:37:13.664Z,3.50
2018-05-16T17:39:41.811Z,3.90
2018-05-16T17:42:09.899Z,3.70
2018-05-16T17:44:38.841Z,4.50
2018-05-16T17:47:06.941Z,4.40
2018-05-16T17:49:35.805Z,4.60
2018-05-16T17:52:03.898Z,4.57
2018-05-16T17:54:32.005Z,4.40
2018-05-16T17:57:00.166Z,4.27
2018-05-16T17:59:28.308Z,4.20
2018-05-16T18:01:56.403Z,4.23
2018-05-16T18:04:39.387Z,4.70
2018-05-16T18:07:07.679Z,4.23
2018-05-16T18:09:35.793Z,4.23
2018-05-16T18:12:04.803Z,4.90
2018-05-16T18:17:48.543Z,4.83
2018-05-16T18:20:16.641Z,5.50
2018-05-16T18:22:45.697Z,5.43
2018-05-16T18:25:14.691Z,5.27
2018-05-16T18:27:42.791Z,5.27
2018-05-16T18:30:12.656Z,5.77
2018-05-16T18:32:53.164Z,6.10
2018-05-16T18:35:21.257Z,5.87
2018-05-16T18:37:50.380Z,6.80
2018-05-16T18:40:20.419Z,6.60
2018-05-16T18:43:07.313Z,5.33
2018-05-16T18:45:35.436Z,5.73
2018-05-16T18:48:07.606Z,5.53
2018-05-16T18:50:35.724Z,5.90
2018-05-16T18:53:03.870Z,5.87
2018-05-16T18:55:32.735Z,6.37
2018-05-16T18:58:01.611Z,6.73
2018-05-16T19:00:29.720Z,5.77
2018-05-16T19:05:57.734Z,6.10
2018-05-16T19:08:27.034Z,6.00
2018-05-16T19:10:55.256Z,5.40
2018-05-16T19:13:24.321Z,6.30
2018-05-16T19:15:53.418Z,5.90
2018-05-16T19:18:26.077Z,5.77
2018-05-16T19:20:55.107Z,6.47
2018-05-16T19:23:23.204Z,5.73
2018-05-16T19:25:51.997Z,6.60
2018-05-16T19:28:20.154Z,4.93
2018-05-16T19:30:48.272Z,4.60
2018-05-16T19:33:16.363Z,5.67
2018-05-16T19:35:44.467Z,6.10
2018-05-16T19:38:13.338Z,5.83
2018-05-16T19:40:41.990Z,6.00
2018-05-16T19:43:10.851Z,7.03
2018-05-16T19:45:38.956Z,6.20
2018-05-16T19:48:07.820Z,5.40
2018-05-16T19:50:35.917Z,5.83
2018-05-16T19:53:04.589Z,6.60
2018-05-16T19:55:32.701Z,5.90
2018-05-16T19:58:00.821Z,5.93
2018-05-16T20:00:28.949Z,5.47
2018-05-16T20:02:57.059Z,4.93
2018-05-16T20:05:25.149Z,4.43
2018-05-16T20:07:55.220Z,5.30
2018-05-16T20:10:23.642Z,5.07
2018-05-16T20:12:51.759Z,5.13
2018-05-16T20:15:19.840Z,5.70
2018-05-16T20:17:48.826Z,4.63
2018-05-16T20:20:19.979Z,5.00
2018-05-16T20:22:48.109Z,4.50
2018-05-16T20:25:16.864Z,4.43
2018-05-16T20:27:44.950Z,4.00
2018-05-16T20:30:13.063Z,3.77
2018-05-16T20:32:41.586Z,3.57
2018-05-16T20:35:10.127Z,3.77
2018-05-16T20:37:38.242Z,5.30
2018-05-16T20:40:06.338Z,4.17
2018-05-16T20:42:34.460Z,4.50
2018-05-16T20:45:02.561Z,4.13
2018-05-16T20:47:30.664Z,5.40
2018-05-16T20:49:58.782Z,3.73
2018-05-16T20:52:27.529Z,3.93
2018-05-16T20:54:55.620Z,4.40
2018-05-16T20:57:24.670Z,3.67
2018-05-16T20:59:52.794Z,3.43
2018-05-16T21:02:20.910Z,4.20
2018-05-16T21:04:49.787Z,5.37
2018-05-16T21:07:17.876Z,5.03
2018-05-16T21:09:45.972Z,5.33
2018-05-16T21:12:14.073Z,4.37
2018-05-16T21:14:42.944Z,4.60
2018-05-16T21:17:11.044Z,5.30
2018-05-16T21:19:39.130Z,6.13
2018-05-16T21:22:07.241Z,4.60
2018-05-16T21:24:35.373Z,4.70
2018-05-16T21:27:03.467Z,5.37
2018-05-16T21:29:31.573Z,4.90
2018-05-16T21:32:00.487Z,5.23
2018-05-16T21:34:29.356Z,5.17
2018-05-16T21:36:57.463Z,4.40
2018-05-16T21:39:26.318Z,5.07
2018-05-16T21:41:54.434Z,4.30
2018-05-16T21:44:22.529Z,4.70
2018-05-16T21:46:50.631Z,4.90
2018-05-16T21:49:18.820Z,4.00
2018-05-16T21:51:46.904Z,4.17
2018-05-16T21:54:15.000Z,4.07
2018-05-16T21:56:43.128Z,3.83
2018-05-16T21:59:11.229Z,4.53
2018-05-16T22:01:39.329Z,4.60
2018-05-16T22:04:07.438Z,4.17
2018-05-16T22:06:35.548Z,3.77
2018-05-16T22:09:03.634Z,3.40
2018-05-16T22:11:32.535Z,3.80
2018-05-16T22:14:00.626Z,3.50
2018-05-16T22:16:28.727Z,3.93
2018-05-16T22:18:56.823Z,4.30
2018-05-16T22:21:24.933Z,3.47
2018-05-16T22:23:53.051Z,4.80
2018-05-16T22:26:21.156Z,3.80
2018-05-16T22:28:49.260Z,3.90
2018-05-16T22:31:23.830Z,4.20
2018-05-16T22:33:57.530Z,4.00
2018-05-16T22:36:31.335Z,4.30
2018-05-16T22:39:05.186Z,3.90
2018-05-16T22:41:38.845Z,4.07
2018-05-16T22:44:12.606Z,4.70
2018-05-16T22:46:40.726Z,4.80
2018-05-16T22:49:08.823Z,4.30
2018-05-16T22:51:36.933Z,4.00
2018-05-16T22:54:05.029Z,3.90
2018-05-16T22:56:33.893Z,4.30
2018-05-16T22:59:01.993Z,4.53
2018-05-16T23:01:30.473Z,4.00
2018-05-16T23:03:58.547Z,4.27
2018-05-16T23:06:26.643Z,4.33
2018-05-16T23:08:54.767Z,4.70
2018-05-16T23:11:23.614Z,3.47
2018-05-16T23:13:51.718Z,5.63
2018-05-16T23:16:19.825Z,4.90
2018-05-16T23:18:48.723Z,3.70
2018-05-16T23:21:16.804Z,3.43
2018-05-16T23:23:45.672Z,3.80
2018-05-16T23:26:13.767Z,3.23
2018-05-16T23:28:41.864Z,3.87
2018-05-16T23:31:09.946Z,4.30
2018-05-16T23:33:38.047Z,4.20
2018-05-16T23:36:06.919Z,4.27
2018-05-16T23:38:35.038Z,3.90
2018-05-16T23:41:03.121Z,4.90
2018-05-16T23:43:32.004Z,3.40
2018-05-16T23:46:00.099Z,4.10
2018-05-16T23:48:28.194Z,4.30
2018-05-16T23:50:57.089Z,5.03
2018-05-16T23:53:25.950Z,4.93
2018-05-16T23:55:54.073Z,4.00
2018-05-16T23:58:22.560Z,3.67
